createdAt,value
2018-08-11T00:01:46.946Z,1.33
2018-08-11T00:04:15.918Z,1.20
2018-08-11T00:06:45.529Z,1.20
2018-08-11T00:09:14.697Z,1.13
2018-08-11T00:11:42.982Z,1.33
2018-08-11T00:14:11.270Z,1.40
2018-08-11T00:16:40.242Z,1.40
2018-08-11T00:19:08.344Z,1.10
2018-08-11T00:21:36.455Z,0.93
2018-08-11T00:24:04.647Z,1.10
2018-08-11T00:26:32.722Z,1.20
2018-08-11T00:29:01.379Z,1.30
2018-08-11T00:31:30.002Z,1.23
2018-08-11T00:33:58.302Z,0.90
2018-08-11T00:36:26.527Z,1.53
2018-08-11T00:38:54.637Z,0.97
2018-08-11T00:41:22.733Z,1.33
2018-08-11T00:43:50.951Z,1.20
2018-08-11T00:46:19.087Z,1.27
2018-08-11T00:48:47.241Z,1.00
2018-08-11T00:51:15.386Z,0.93
2018-08-11T00:53:43.517Z,0.90
2018-08-11T00:56:11.730Z,1.20
2018-08-11T00:58:39.820Z,1.27
2018-08-11T01:01:08.029Z,1.43
2018-08-11T01:03:36.074Z,1.17
2018-08-11T01:06:04.631Z,1.00
2018-08-11T01:08:32.873Z,1.32
2018-08-11T01:11:00.961Z,1.10
2018-08-11T01:13:29.723Z,1.27
2018-08-11T01:15:57.808Z,1.20
2018-08-11T01:18:26.052Z,1.27
2018-08-11T01:20:54.189Z,1.10
2018-08-11T01:23:22.226Z,1.40
2018-08-11T01:25:56.641Z,1.07
2018-08-11T01:28:24.754Z,1.13
2018-08-11T01:30:53.094Z,1.50
2018-08-11T01:33:21.781Z,0.90
2018-08-11T01:35:50.761Z,1.00
2018-08-11T01:38:19.449Z,1.00
2018-08-11T01:40:47.882Z,1.17
2018-08-11T01:43:16.075Z,1.37
2018-08-11T01:45:44.391Z,1.30
2018-08-11T01:48:12.515Z,1.20
2018-08-11T01:50:40.634Z,1.50
2018-08-11T01:53:08.778Z,1.43
2018-08-11T01:55:36.908Z,1.17
2018-08-11T01:58:05.064Z,1.07
2018-08-11T02:00:33.129Z,1.10
2018-08-11T02:03:01.811Z,1.40
2018-08-11T02:05:29.935Z,1.23
2018-08-11T02:07:58.029Z,1.30
2018-08-11T02:10:26.676Z,1.47
2018-08-11T02:12:54.902Z,1.27
2018-08-11T02:15:23.694Z,1.43
2018-08-11T02:17:51.771Z,1.27
2018-08-11T02:20:20.252Z,1.07
2018-08-11T02:22:49.946Z,1.27
2018-08-11T02:25:18.015Z,1.37
2018-08-11T02:27:46.096Z,1.43
2018-08-11T02:30:16.599Z,1.20
2018-08-11T02:32:44.724Z,1.80
2018-08-11T02:35:13.827Z,1.50
2018-08-11T02:37:42.487Z,1.30
2018-08-11T02:40:12.833Z,1.47
2018-08-11T02:42:41.130Z,1.30
2018-08-11T02:45:11.412Z,1.50
2018-08-11T02:47:39.618Z,1.40
2018-08-11T02:50:09.410Z,1.70
2018-08-11T02:52:37.790Z,1.30
2018-08-11T02:55:06.061Z,1.13
2018-08-11T02:57:34.322Z,1.32
2018-08-11T03:00:02.574Z,1.45
2018-08-11T03:02:30.765Z,1.47
2018-08-11T03:04:58.856Z,1.32
2018-08-11T03:07:26.968Z,1.30
2018-08-11T03:09:55.074Z,1.40
2018-08-11T03:12:23.641Z,1.80
2018-08-11T03:14:51.726Z,1.47
2018-08-11T03:17:21.396Z,1.90
2018-08-11T03:19:49.591Z,1.30
2018-08-11T03:22:18.677Z,1.40
2018-08-11T03:24:47.083Z,1.53
2018-08-11T03:27:16.295Z,1.73
2018-08-11T03:29:45.022Z,1.50
2018-08-11T03:32:13.691Z,1.27
2018-08-11T03:34:41.807Z,1.30
2018-08-11T03:37:09.967Z,1.50
2018-08-11T03:39:38.214Z,1.70
2018-08-11T03:42:06.358Z,1.53
2018-08-11T03:44:34.706Z,1.40
2018-08-11T03:47:03.344Z,1.70
2018-08-11T03:49:31.439Z,1.77
2018-08-11T03:51:59.554Z,1.47
2018-08-11T03:54:27.887Z,1.32
2018-08-11T03:56:56.702Z,1.60
2018-08-11T03:59:24.780Z,1.63
2018-08-11T04:01:52.967Z,1.70
2018-08-11T04:04:21.413Z,1.27
2018-08-11T04:06:49.747Z,1.50
2018-08-11T04:09:17.795Z,1.43
2018-08-11T04:11:46.418Z,1.47
2018-08-11T04:14:14.493Z,1.40
2018-08-11T04:16:42.928Z,1.87
2018-08-11T04:19:10.984Z,1.87
2018-08-11T04:21:39.091Z,1.30
2018-08-11T04:24:07.870Z,1.13
2018-08-11T04:26:36.693Z,1.50
2018-08-11T04:29:04.793Z,1.50
2018-08-11T04:31:33.117Z,1.60
2018-08-11T04:34:01.226Z,1.20
2018-08-11T04:36:29.452Z,1.40
2018-08-11T04:38:57.837Z,2.10
2018-08-11T04:41:25.934Z,1.50
2018-08-11T04:43:53.991Z,1.50
2018-08-11T04:46:22.222Z,2.07
2018-08-11T04:48:50.333Z,1.30
2018-08-11T04:51:18.648Z,1.40
2018-08-11T04:53:46.790Z,1.33
2018-08-11T04:56:14.911Z,1.23
2018-08-11T04:58:43.030Z,2.03
2018-08-11T05:01:11.245Z,1.40
2018-08-11T05:03:40.329Z,1.37
2018-08-11T05:06:08.571Z,1.50
2018-08-11T05:08:36.784Z,2.10
2018-08-11T05:11:05.246Z,2.20
2018-08-11T05:13:33.278Z,1.73
2018-08-11T05:16:01.426Z,1.90
2018-08-11T05:18:29.469Z,2.10
2018-08-11T05:20:57.566Z,1.47
2018-08-11T05:23:25.649Z,1.50
2018-08-11T05:25:53.759Z,1.37
2018-08-11T05:28:21.811Z,1.57
2018-08-11T05:30:50.064Z,1.40
2018-08-11T05:33:18.113Z,1.60
2018-08-11T05:35:46.183Z,1.70
2018-08-11T05:38:14.321Z,1.83
2018-08-11T05:40:42.644Z,1.37
2018-08-11T05:43:10.755Z,1.40
2018-08-11T05:45:38.957Z,1.77
2018-08-11T05:48:07.146Z,1.60
2018-08-11T05:50:35.189Z,1.20
2018-08-11T05:53:03.332Z,1.82
2018-08-11T05:55:31.561Z,1.40
2018-08-11T05:57:59.872Z,1.55
2018-08-11T06:00:28.047Z,1.57
2018-08-11T06:02:56.137Z,1.70
2018-08-11T06:05:24.535Z,1.33
2018-08-11T06:07:52.663Z,1.60
2018-08-11T06:10:20.819Z,1.73
2018-08-11T06:12:48.910Z,1.50
2018-08-11T06:15:17.220Z,2.30
2018-08-11T06:17:45.278Z,1.40
2018-08-11T06:20:13.381Z,1.93
2018-08-11T06:22:41.447Z,1.73
2018-08-11T06:25:10.747Z,1.50
2018-08-11T06:27:39.026Z,1.50
2018-08-11T06:30:08.754Z,1.77
2018-08-11T06:32:37.115Z,1.90
2018-08-11T06:35:05.937Z,1.60
2018-08-11T06:37:34.036Z,1.90
2018-08-11T06:40:02.066Z,1.87
2018-08-11T06:42:30.214Z,1.77
2018-08-11T06:44:58.345Z,2.03
2018-08-11T06:47:26.418Z,1.80
2018-08-11T06:49:54.561Z,1.97
2018-08-11T06:52:22.649Z,1.67
2018-08-11T06:54:50.843Z,1.87
2018-08-11T06:57:19.038Z,1.70
2018-08-11T06:59:47.178Z,1.90
2018-08-11T07:02:15.354Z,1.90
2018-08-11T07:04:43.485Z,1.90
2018-08-11T07:07:11.651Z,2.27
2018-08-11T07:09:40.210Z,1.87
2018-08-11T07:12:08.546Z,1.40
2018-08-11T07:14:36.605Z,2.90
2018-08-11T07:17:04.722Z,1.53
2018-08-11T07:19:32.794Z,1.73
2018-08-11T07:22:01.081Z,1.70
2018-08-11T07:24:29.142Z,1.67
2018-08-11T07:26:57.233Z,1.80
2018-08-11T07:29:25.368Z,1.67
2018-08-11T07:31:53.494Z,2.20
2018-08-11T07:34:21.755Z,1.83
2018-08-11T07:36:50.635Z,2.05
2018-08-11T07:39:18.750Z,1.80
2018-08-11T07:41:46.897Z,2.27
2018-08-11T07:44:15.070Z,1.60
2018-08-11T07:46:43.147Z,1.90
2018-08-11T07:49:11.202Z,2.13
2018-08-11T07:51:39.257Z,2.07
2018-08-11T07:54:07.323Z,2.30
2018-08-11T07:56:35.412Z,2.00
2018-08-11T07:59:03.459Z,2.10
2018-08-11T08:01:31.521Z,1.80
2018-08-11T08:03:59.627Z,2.17
2018-08-11T08:06:27.790Z,2.00
2018-08-11T08:08:55.843Z,1.90
2018-08-11T08:11:23.959Z,1.57
2018-08-11T08:13:52.054Z,1.80
2018-08-11T08:16:20.962Z,2.08
2018-08-11T08:18:49.050Z,1.70
2018-08-11T08:21:17.155Z,2.10
2018-08-11T08:23:45.219Z,1.37
2018-08-11T08:26:13.395Z,1.60
2018-08-11T08:28:41.478Z,1.93
2018-08-11T08:31:09.687Z,1.90
2018-08-11T08:33:37.779Z,1.70
2018-08-11T08:36:05.809Z,1.55
2018-08-11T08:38:34.142Z,1.45
2018-08-11T08:41:02.251Z,1.20
2018-08-11T08:43:30.691Z,1.47
2018-08-11T08:45:58.902Z,1.50
2018-08-11T08:48:27.046Z,1.90
2018-08-11T08:50:55.111Z,1.40
2018-08-11T08:53:23.193Z,1.60
2018-08-11T08:55:51.208Z,1.40
2018-08-11T08:58:19.302Z,1.63
2018-08-11T09:00:47.433Z,1.37
2018-08-11T09:03:15.562Z,1.13
2018-08-11T09:05:43.651Z,1.00
2018-08-11T09:08:11.743Z,1.23
2018-08-11T09:10:39.864Z,1.30
2018-08-11T09:13:07.913Z,1.30
2018-08-11T09:15:36.139Z,1.10
2018-08-11T09:18:04.566Z,1.60
2018-08-11T09:20:32.669Z,1.07
2018-08-11T09:23:00.736Z,1.17
2018-08-11T09:25:29.131Z,1.30
2018-08-11T09:27:57.286Z,1.10
2018-08-11T09:30:26.496Z,0.90
2018-08-11T09:32:54.601Z,1.30
2018-08-11T09:35:22.694Z,1.37
2018-08-11T09:37:51.307Z,1.10
2018-08-11T09:40:19.693Z,1.60
2018-08-11T09:42:48.194Z,1.07
2018-08-11T09:45:17.191Z,1.30
2018-08-11T09:47:45.686Z,1.10
2018-08-11T09:50:13.749Z,1.00
2018-08-11T09:52:42.424Z,1.37
2018-08-11T09:55:10.600Z,1.20
2018-08-11T09:57:38.715Z,1.63
2018-08-11T10:00:08.622Z,1.00
2018-08-11T10:02:36.670Z,1.30
2018-08-11T10:05:05.438Z,1.12
2018-08-11T10:07:34.107Z,1.30
2018-08-11T10:10:02.241Z,1.22
2018-08-11T10:12:30.568Z,1.00
2018-08-11T10:14:59.629Z,1.55
2018-08-11T10:17:28.271Z,1.20
2018-08-11T10:19:56.388Z,1.40
2018-08-11T10:22:26.344Z,1.20
2018-08-11T10:24:54.705Z,2.60
2018-08-11T10:27:22.798Z,3.07
2018-08-11T10:29:50.991Z,1.10
2018-08-11T10:32:19.109Z,1.20
2018-08-11T10:34:47.167Z,1.30
2018-08-11T10:37:15.292Z,1.10
2018-08-11T10:39:43.334Z,1.10
2018-08-11T10:42:11.387Z,1.10
2018-08-11T10:44:39.563Z,1.10
2018-08-11T10:47:07.775Z,0.93
2018-08-11T10:49:35.823Z,0.98
2018-08-11T10:52:03.990Z,1.13
2018-08-11T10:54:32.081Z,0.80
2018-08-11T10:57:00.224Z,1.00
2018-08-11T10:59:28.462Z,0.83
2018-08-11T11:01:56.534Z,0.80
2018-08-11T11:04:24.653Z,1.33
2018-08-11T11:06:52.758Z,1.10
2018-08-11T11:09:21.657Z,1.10
2018-08-11T11:11:49.799Z,0.80
2018-08-11T11:14:17.868Z,0.90
2018-08-11T11:16:46.005Z,1.20
2018-08-11T11:19:14.230Z,0.90
2018-08-11T11:21:42.520Z,0.90
2018-08-11T11:24:10.770Z,0.90
2018-08-11T11:26:38.845Z,1.00
2018-08-11T11:29:06.904Z,1.27
2018-08-11T11:31:34.933Z,1.20
2018-08-11T11:34:03.015Z,1.00
2018-08-11T11:36:31.111Z,1.00
2018-08-11T11:38:59.246Z,1.00
2018-08-11T11:41:27.296Z,0.82
2018-08-11T11:43:55.367Z,1.00
2018-08-11T11:46:23.422Z,0.90
2018-08-11T11:48:52.539Z,1.10
2018-08-11T11:51:20.698Z,0.87
2018-08-11T11:53:48.811Z,1.23
2018-08-11T11:56:17.061Z,1.30
2018-08-11T11:58:45.658Z,1.60
2018-08-11T12:01:13.891Z,0.90
2018-08-11T12:03:42.224Z,0.80
2018-08-11T12:06:10.327Z,0.90
2018-08-11T12:08:38.375Z,0.90
2018-08-11T12:11:06.508Z,0.70
2018-08-11T12:13:34.564Z,0.80
2018-08-11T12:16:02.705Z,1.10
2018-08-11T12:18:31.037Z,1.43
2018-08-11T12:20:59.262Z,0.90
2018-08-11T12:23:27.319Z,1.00
2018-08-11T12:25:55.685Z,0.90
2018-08-11T12:28:23.751Z,0.83
2018-08-11T12:30:52.002Z,0.87
2018-08-11T12:33:20.095Z,0.80
2018-08-11T12:35:48.762Z,0.90
2018-08-11T12:38:17.194Z,0.70
2018-08-11T12:40:45.340Z,0.70
2018-08-11T12:43:13.502Z,1.00
2018-08-11T12:45:41.980Z,1.20
2018-08-11T12:48:10.271Z,0.93
2018-08-11T12:50:38.563Z,0.83
2018-08-11T12:53:06.670Z,0.90
2018-08-11T12:55:34.985Z,0.80
2018-08-11T12:58:04.199Z,1.17
2018-08-11T13:00:32.827Z,1.00
2018-08-11T13:03:01.168Z,1.00
2018-08-11T13:05:29.534Z,0.90
2018-08-11T13:07:57.717Z,1.10
2018-08-11T13:10:26.106Z,0.60
2018-08-11T13:12:54.347Z,1.30
2018-08-11T13:15:22.618Z,0.80
2018-08-11T13:17:50.693Z,1.00
2018-08-11T13:20:18.834Z,1.33
2018-08-11T13:22:47.327Z,0.90
2018-08-11T13:25:15.415Z,0.63
2018-08-11T13:27:43.723Z,1.10
2018-08-11T13:30:11.951Z,0.90
2018-08-11T13:32:40.060Z,0.70
2018-08-11T13:35:08.201Z,0.90
2018-08-11T13:37:36.319Z,0.80
2018-08-11T13:40:04.659Z,0.90
2018-08-11T13:42:32.884Z,0.90
2018-08-11T13:45:01.064Z,0.80
2018-08-11T13:47:29.433Z,0.95
2018-08-11T13:49:57.592Z,1.27
2018-08-11T13:52:25.769Z,0.90
2018-08-11T13:54:53.990Z,0.70
2018-08-11T13:57:22.670Z,0.80
2018-08-11T13:59:50.927Z,0.90
2018-08-11T14:02:18.996Z,1.10
2018-08-11T14:04:47.245Z,1.13
2018-08-11T14:07:15.559Z,1.10
2018-08-11T14:09:43.837Z,0.80
2018-08-11T14:12:12.422Z,1.30
2018-08-11T14:17:16.986Z,0.97
2018-08-11T14:19:46.739Z,0.70
2018-08-11T14:22:15.334Z,1.10
2018-08-11T14:24:43.447Z,0.90
2018-08-11T14:27:11.547Z,0.93
2018-08-11T14:29:39.814Z,1.02
2018-08-11T14:32:07.936Z,1.10
2018-08-11T14:34:36.148Z,1.10
2018-08-11T14:37:12.106Z,1.00
2018-08-11T14:39:40.362Z,0.87
2018-08-11T14:42:08.525Z,0.70
2018-08-11T14:44:36.817Z,1.20
2018-08-11T14:47:05.069Z,1.65
2018-08-11T14:49:33.092Z,1.02
2018-08-11T14:52:01.274Z,0.77
2018-08-11T14:54:29.410Z,1.02
2018-08-11T14:56:57.708Z,1.20
2018-08-11T14:59:25.906Z,0.80
2018-08-11T15:01:54.480Z,0.97
2018-08-11T15:04:26.903Z,0.90
2018-08-11T15:06:55.020Z,1.13
2018-08-11T15:09:23.831Z,0.80
2018-08-11T15:11:53.551Z,1.10
2018-08-11T15:14:22.799Z,1.20
2018-08-11T15:16:50.870Z,1.13
2018-08-11T15:19:18.943Z,1.00
2018-08-11T15:21:47.059Z,0.90
2018-08-11T15:24:15.310Z,1.70
2018-08-11T15:26:43.411Z,0.97
2018-08-11T15:29:11.784Z,1.20
2018-08-11T15:31:39.934Z,1.10
2018-08-11T15:34:08.223Z,1.00
2018-08-11T15:36:36.675Z,0.90
2018-08-11T15:39:09.072Z,0.80
2018-08-11T15:41:37.346Z,0.80
2018-08-11T15:44:05.627Z,0.80
2018-08-11T15:46:33.765Z,0.63
2018-08-11T15:49:01.960Z,1.40
2018-08-11T15:51:30.192Z,0.80
2018-08-11T15:53:58.443Z,0.90
2018-08-11T15:56:26.553Z,1.10
2018-08-11T15:58:55.114Z,0.90
2018-08-11T16:01:23.475Z,1.20
2018-08-11T16:03:51.624Z,0.90
2018-08-11T16:06:20.298Z,0.80
2018-08-11T16:08:48.593Z,0.90
2018-08-11T16:11:16.739Z,1.07
2018-08-11T16:13:44.903Z,0.97
2018-08-11T16:16:15.236Z,1.30
2018-08-11T16:18:43.386Z,1.17
2018-08-11T16:21:11.620Z,1.30
2018-08-11T16:23:39.812Z,1.30
2018-08-11T16:26:08.123Z,1.00
2018-08-11T16:28:36.326Z,0.97
2018-08-11T16:31:04.441Z,1.10
2018-08-11T16:33:38.914Z,1.27
2018-08-11T16:36:07.150Z,1.00
2018-08-11T16:38:36.074Z,1.10
2018-08-11T16:41:05.880Z,1.10
2018-08-11T16:43:34.009Z,1.10
2018-08-11T16:46:02.556Z,1.07
2018-08-11T16:48:30.725Z,1.30
2018-08-11T16:50:58.906Z,1.30
2018-08-11T16:53:27.163Z,1.03
2018-08-11T16:55:55.253Z,1.83
2018-08-11T16:58:23.488Z,1.50
2018-08-11T17:00:51.747Z,1.30
2018-08-11T17:03:19.741Z,1.10
2018-08-11T17:05:47.976Z,1.40
2018-08-11T17:08:15.974Z,4.80
2018-08-11T17:10:44.040Z,1.57
2018-08-11T17:13:12.124Z,1.13
2018-08-11T17:15:40.243Z,1.20
2018-08-11T17:18:08.291Z,1.10
2018-08-11T17:20:36.381Z,1.47
2018-08-11T17:23:04.494Z,0.90
2018-08-11T17:25:32.565Z,0.80
2018-08-11T17:28:00.995Z,0.90
2018-08-11T17:30:29.041Z,1.17
2018-08-11T17:32:57.126Z,1.40
2018-08-11T17:35:25.188Z,1.20
2018-08-11T17:37:53.407Z,1.20
2018-08-11T17:40:22.333Z,1.10
2018-08-11T17:42:50.853Z,1.23
2018-08-11T17:45:18.935Z,1.03
2018-08-11T17:47:47.633Z,1.30
2018-08-11T17:50:15.755Z,1.03
2018-08-11T17:52:43.882Z,1.30
2018-08-11T17:55:12.067Z,1.33
2018-08-11T17:57:40.319Z,1.27
2018-08-11T18:00:08.517Z,1.30
2018-08-11T18:02:36.790Z,1.60
2018-08-11T18:05:06.755Z,1.57
2018-08-11T18:07:35.583Z,1.37
2018-08-11T18:10:03.807Z,1.67
2018-08-11T18:12:32.457Z,1.62
2018-08-11T18:15:00.530Z,1.27
2018-08-11T18:17:28.837Z,1.20
2018-08-11T18:19:57.202Z,1.10
2018-08-11T18:22:25.353Z,1.30
2018-08-11T18:24:53.604Z,1.40
2018-08-11T18:27:21.848Z,1.47
2018-08-11T18:29:49.995Z,1.77
2018-08-11T18:32:18.125Z,1.97
2018-08-11T18:34:46.487Z,1.60
2018-08-11T18:37:14.536Z,1.90
2018-08-11T18:39:43.661Z,1.40
2018-08-11T18:42:12.210Z,1.75
2018-08-11T18:44:40.913Z,1.50
2018-08-11T18:47:09.045Z,1.17
2018-08-11T18:49:37.115Z,1.20
2018-08-11T18:52:05.316Z,1.47
2018-08-11T18:54:33.920Z,1.53
2018-08-11T18:57:02.130Z,1.20
2018-08-11T18:59:30.350Z,1.20
2018-08-11T19:01:58.462Z,1.55
2018-08-11T19:04:26.646Z,1.57
2018-08-11T19:06:54.806Z,1.23
2018-08-11T19:09:23.649Z,1.80
2018-08-11T19:11:52.033Z,1.77
2018-08-11T19:14:20.683Z,1.60
2018-08-11T19:16:49.026Z,1.87
2018-08-11T19:19:17.166Z,1.87
2018-08-11T19:21:45.441Z,1.80
2018-08-11T19:24:13.605Z,1.77
2018-08-11T19:26:41.711Z,1.77
2018-08-11T19:29:09.857Z,1.80
2018-08-11T19:31:38.059Z,1.83
2018-08-11T19:34:06.362Z,1.30
2018-08-11T19:36:34.520Z,1.30
2018-08-11T19:39:04.191Z,2.17
2018-08-11T19:41:32.367Z,4.43
2018-08-11T19:44:00.707Z,4.62
2018-08-11T19:46:28.963Z,4.12
2018-08-11T19:48:57.001Z,5.40
2018-08-11T19:51:25.245Z,4.57
2018-08-11T19:53:54.070Z,4.90
2018-08-11T19:56:22.141Z,7.13
2018-08-11T19:58:50.264Z,4.97
2018-08-11T20:01:18.457Z,3.53
2018-08-11T20:03:46.574Z,2.23
2018-08-11T20:06:14.731Z,3.00
2018-08-11T20:08:42.803Z,3.17
2018-08-11T20:11:10.915Z,3.00
2018-08-11T20:13:38.982Z,2.00
2018-08-11T20:16:07.259Z,2.92
2018-08-11T20:18:35.346Z,3.60
2018-08-11T20:21:03.411Z,2.40
2018-08-11T20:23:31.551Z,2.87
2018-08-11T20:25:59.616Z,4.97
2018-08-11T20:28:27.700Z,4.63
2018-08-11T20:30:55.856Z,3.30
2018-08-11T20:33:24.070Z,3.52
2018-08-11T20:35:52.116Z,3.10
2018-08-11T20:38:29.006Z,3.17
2018-08-11T20:41:12.278Z,2.43
2018-08-11T20:43:40.514Z,2.60
2018-08-11T20:46:08.625Z,2.30
2018-08-11T20:48:36.685Z,2.33
2018-08-11T20:51:04.779Z,2.20
2018-08-11T20:53:32.878Z,2.03
2018-08-11T20:56:01.366Z,2.25
2018-08-11T20:58:29.477Z,2.23
2018-08-11T21:00:57.583Z,2.40
2018-08-11T21:03:25.691Z,2.60
2018-08-11T21:05:54.216Z,2.08
2018-08-11T21:08:22.356Z,2.10
2018-08-11T21:10:50.844Z,2.20
2018-08-11T21:13:18.935Z,3.17
2018-08-11T21:15:46.987Z,3.50
2018-08-11T21:18:15.017Z,3.07
2018-08-11T21:20:43.092Z,2.60
2018-08-11T21:23:11.239Z,3.23
2018-08-11T21:25:39.408Z,3.07
2018-08-11T21:28:07.783Z,3.02
2018-08-11T21:30:35.890Z,2.60
2018-08-11T21:33:04.091Z,3.17
2018-08-11T21:35:32.153Z,2.90
2018-08-11T21:38:00.419Z,3.50
2018-08-11T21:40:28.468Z,2.75
2018-08-11T21:42:56.588Z,2.90
2018-08-11T21:45:24.669Z,2.70
2018-08-11T21:47:52.773Z,3.00
2018-08-11T21:50:20.802Z,3.10
2018-08-11T21:52:48.907Z,3.00
2018-08-11T21:55:16.975Z,2.87
2018-08-11T21:57:45.178Z,2.77
2018-08-11T22:00:23.805Z,3.00
2018-08-11T22:02:51.887Z,3.03
2018-08-11T22:05:20.048Z,2.63
2018-08-11T22:07:48.269Z,2.83
2018-08-11T22:10:16.499Z,3.50
2018-08-11T22:12:44.624Z,2.87
2018-08-11T22:15:15.682Z,2.73
2018-08-11T22:17:43.775Z,4.53
2018-08-11T22:20:11.867Z,3.33
2018-08-11T22:22:40.142Z,3.00
2018-08-11T22:25:09.722Z,2.87
2018-08-11T22:27:37.967Z,3.00
2018-08-11T22:30:06.720Z,2.80
2018-08-11T22:32:35.152Z,2.50
2018-08-11T22:35:04.065Z,3.10
2018-08-11T22:37:32.646Z,3.87
2018-08-11T22:40:00.897Z,3.07
2018-08-11T22:42:29.045Z,2.77
2018-08-11T22:44:57.117Z,2.57
2018-08-11T22:47:25.549Z,2.60
2018-08-11T22:49:53.487Z,2.90
2018-08-11T22:52:21.555Z,3.47
2018-08-11T22:54:49.625Z,2.90
2018-08-11T22:57:17.725Z,2.90
2018-08-11T22:59:45.808Z,3.40
2018-08-11T23:02:14.002Z,3.30
2018-08-11T23:04:42.434Z,2.83
2018-08-11T23:07:10.554Z,3.30
2018-08-11T23:09:38.892Z,2.80
2018-08-11T23:12:07.402Z,2.53
2018-08-11T23:14:35.669Z,2.20
2018-08-11T23:17:03.762Z,2.60
2018-08-11T23:19:31.912Z,2.08
2018-08-11T23:22:00.108Z,2.48
2018-08-11T23:24:28.337Z,2.67
2018-08-11T23:26:56.459Z,1.90
2018-08-11T23:29:25.559Z,2.20
2018-08-11T23:31:53.660Z,2.47
2018-08-11T23:34:21.715Z,2.10
2018-08-11T23:36:49.908Z,2.03
2018-08-11T23:39:18.241Z,2.00
2018-08-11T23:41:46.579Z,2.53
2018-08-11T23:44:14.937Z,2.17
2018-08-11T23:46:43.029Z,1.90
2018-08-11T23:49:11.253Z,1.63
2018-08-11T23:51:39.309Z,2.57
2018-08-11T23:54:07.652Z,2.00
2018-08-11T23:56:35.703Z,1.97
2018-08-11T23:59:03.777Z,2.20
